Time;durP1;ratioP1;P1;durP2;ratioP2;P2;SDS_P1;SDS_P2;PMS_P1;PMS_P2;Temp;Humidity;BMP_temperature;BMP_pressure;BME280_temperature;BME280_humidity;BME280_pressure;Samples;Min_cycle;Max_cycle;Signal;HPM_P1;HPM_P2
2022/06/07 00:00:24;;;;;;;18.20;16.05;;;21.80;99.90;;;;;;5002622;28;20250;-73
2022/06/07 00:03:14;;;;;;;19.60;15.10;;;21.80;99.90;;;;;;5002297;28;20321;-73
2022/06/07 00:06:03;;;;;;;18.45;16.48;;;21.80;99.90;;;;;;5002633;28;20309;-71
2022/06/07 00:08:52;;;;;;;17.92;16.05;;;21.70;99.90;;;;;;4998077;28;20341;-74
2022/06/07 00:11:40;;;;;;;18.13;16.08;;;21.60;99.90;;;;;;5009464;28;20214;-73
2022/06/07 00:14:34;;;;;;;19.33;17.30;;;21.50;99.90;;;;;;4998301;28;20230;-74
2022/06/07 00:17:24;;;;;;;19.38;16.92;;;21.60;99.90;;;;;;5003768;28;20353;-75
2022/06/07 00:20:13;;;;;;;20.55;17.98;;;21.70;99.90;;;;;;5001890;28;20223;-74
2022/06/07 00:23:03;;;;;;;19.58;17.58;;;21.70;99.90;;;;;;4999793;28;20365;-74
2022/06/07 00:25:54;;;;;;;23.33;18.35;;;21.70;99.90;;;;;;5011988;28;20236;-73
2022/06/07 00:28:43;;;;;;;19.13;17.10;;;21.60;99.90;;;;;;5020793;28;20244;-74
2022/06/07 00:31:32;;;;;;;19.98;17.95;;;21.60;99.90;;;;;;5013443;28;20230;-74
2022/06/07 00:34:23;;;;;;;20.02;17.83;;;21.60;99.90;;;;;;5003440;28;20225;-73
2022/06/07 00:37:12;;;;;;;21.73;17.90;;;21.50;99.90;;;;;;5022194;28;20733;-72
2022/06/07 00:40:00;;;;;;;23.17;19.80;;;21.60;99.90;;;;;;5006072;28;20229;-72
2022/06/07 00:42:49;;;;;;;20.55;18.42;;;21.70;99.90;;;;;;5007881;28;20601;-73
2022/06/07 00:45:38;;;;;;;21.23;18.80;;;21.70;99.90;;;;;;5004779;28;20712;-72
2022/06/07 00:48:28;;;;;;;20.88;18.70;;;21.60;99.90;;;;;;5005237;28;20338;-73
2022/06/07 00:51:19;;;;;;;20.90;18.83;;;21.50;99.90;;;;;;5021372;28;20232;-73
2022/06/07 00:54:08;;;;;;;19.90;17.83;;;21.50;99.90;;;;;;5006170;28;20225;-74
2022/06/07 00:56:57;;;;;;;20.23;18.13;;;21.40;99.90;;;;;;5011458;28;20229;-74
2022/06/07 00:59:51;;;;;;;19.85;17.88;;;21.40;99.90;;;;;;5004937;28;20271;-71
2022/06/07 01:02:40;;;;;;;21.75;18.80;;;21.50;99.90;;;;;;5003432;28;20302;-73
2022/06/07 01:05:29;;;;;;;22.35;19.92;;;21.40;99.90;;;;;;5004373;28;20218;-73
2022/06/07 01:11:32;;;;;;;22.23;19.17;;;21.50;99.90;;;;;;5004853;28;20291;-75
2022/06/07 01:14:21;;;;;;;22.95;20.40;;;21.50;99.90;;;;;;5000679;28;20511;-75
2022/06/07 01:17:09;;;;;;;27.42;20.90;;;21.30;99.90;;;;;;5004445;28;20215;-73
2022/06/07 01:19:59;;;;;;;24.67;22.02;;;21.20;99.90;;;;;;5007061;28;20229;-73
2022/06/07 01:22:50;;;;;;;26.20;20.92;;;21.10;99.90;;;;;;5003412;28;20236;-74
2022/06/07 01:25:43;;;;;;;23.73;21.10;;;21.20;99.90;;;;;;5006932;28;20244;-74
2022/06/07 01:28:31;;;;;;;24.67;22.08;;;21.10;99.90;;;;;;5010245;28;20229;-72
2022/06/07 01:31:21;;;;;;;35.55;24.27;;;21.00;99.90;;;;;;5006621;28;20236;-72
2022/06/07 01:34:10;;;;;;;29.27;23.13;;;21.00;99.90;;;;;;5009962;28;20297;-73
2022/06/07 01:37:03;;;;;;;31.45;22.70;;;21.00;99.90;;;;;;5007564;28;20275;-73
2022/06/07 01:43:02;;;;;;;27.60;24.70;;;20.90;99.90;;;;;;5004220;28;20342;-72
2022/06/07 01:45:50;;;;;;;27.85;24.85;;;20.90;99.90;;;;;;5011473;28;20312;-72
2022/06/07 01:48:39;;;;;;;27.15;24.48;;;20.90;99.90;;;;;;5020830;28;20248;-72
2022/06/07 01:51:32;;;;;;;27.63;24.90;;;20.90;99.90;;;;;;5019498;28;20756;-73
2022/06/07 01:54:21;;;;;;;28.08;25.13;;;20.80;99.90;;;;;;5004086;28;21031;-72
2022/06/07 01:57:12;;;;;;;28.75;25.63;;;20.80;99.90;;;;;;5007159;28;20267;-71
2022/06/07 02:00:01;;;;;;;27.88;25.05;;;20.80;99.90;;;;;;5004109;28;20838;-73
2022/06/07 02:03:00;;;;;;;29.10;26.10;;;20.80;99.90;;;;;;5015758;28;20229;-72
2022/06/07 02:05:56;;;;;;;28.50;25.63;;;20.80;99.90;;;;;;5006299;28;20225;-72
2022/06/07 02:08:47;;;;;;;29.75;26.75;;;20.90;99.90;;;;;;4999915;28;20229;-73
2022/06/07 02:11:37;;;;;;;28.42;25.52;;;21.00;99.90;;;;;;5002252;28;20348;-73
2022/06/07 02:14:31;;;;;;;29.98;26.90;;;20.90;99.90;;;;;;5003965;28;20765;-74
2022/06/07 02:17:19;;;;;;;29.95;26.75;;;20.90;99.90;;;;;;5006185;28;20225;-74
2022/06/07 02:20:28;;;;;;;29.17;26.33;;;21.00;99.90;;;;;;4999313;28;20224;-72
2022/06/07 02:23:17;;;;;;;30.27;27.17;;;20.90;99.90;;;;;;5016415;28;20900;-71
2022/06/07 02:26:09;;;;;;;32.72;29.33;;;20.90;99.90;;;;;;5004021;28;20221;-73
2022/06/07 02:29:01;;;;;;;32.30;28.98;;;20.60;99.90;;;;;;5006248;28;20221;-73
2022/06/07 02:31:56;;;;;;;32.55;29.25;;;20.60;99.90;;;;;;5019474;28;20237;-72
2022/06/07 02:34:48;;;;;;;32.13;28.20;;;20.70;99.90;;;;;;5016851;28;20229;-73
2022/06/07 02:37:39;;;;;;;33.65;30.20;;;20.70;99.90;;;;;;5014972;28;20302;-73
2022/06/07 02:40:28;;;;;;;34.00;30.45;;;20.60;99.90;;;;;;5018016;28;20229;-74
2022/06/07 02:43:20;;;;;;;34.10;30.48;;;20.60;99.90;;;;;;5002663;28;20217;-73
2022/06/07 02:46:09;;;;;;;33.00;29.65;;;20.70;99.90;;;;;;5004832;28;20710;-73
2022/06/07 02:49:01;;;;;;;33.55;30.10;;;20.70;99.90;;;;;;5002427;28;20359;-72
2022/06/07 02:51:50;;;;;;;32.90;29.60;;;20.60;99.90;;;;;;5017133;28;20247;-72
2022/06/07 02:54:56;;;;;;;35.00;31.35;;;20.60;99.90;;;;;;5001381;28;20224;-72
2022/06/07 02:57:49;;;;;;;36.05;32.08;;;20.40;99.90;;;;;;4995630;28;20705;-73
2022/06/07 03:00:42;;;;;;;34.03;30.70;;;20.50;99.90;;;;;;4997678;28;20228;-72
2022/06/07 03:03:31;;;;;;;34.75;30.95;;;20.50;99.90;;;;;;5001025;28;20213;-73
2022/06/07 03:06:21;;;;;;;34.17;30.60;;;20.60;99.90;;;;;;5015592;28;20279;-75
2022/06/07 03:09:12;;;;;;;34.45;30.73;;;20.70;99.90;;;;;;5005163;28;20280;-74
2022/06/07 03:12:02;;;;;;;37.33;29.98;;;20.70;99.90;;;;;;4998978;28;20241;-73
2022/06/07 03:14:51;;;;;;;36.20;32.40;;;20.70;99.90;;;;;;5003720;28;20317;-73
2022/06/07 03:17:41;;;;;;;34.45;30.83;;;20.60;99.90;;;;;;5003190;28;20236;-73
2022/06/07 03:20:34;;;;;;;36.75;32.92;;;20.60;99.90;;;;;;5002025;28;20222;-73
2022/06/07 03:23:24;;;;;;;36.13;32.03;;;20.60;99.90;;;;;;5003036;28;20232;-69
2022/06/07 03:26:18;;;;;;;34.97;31.42;;;20.60;99.90;;;;;;5003461;28;20233;-72
2022/06/07 03:29:23;;;;;;;37.42;33.63;;;20.70;99.90;;;;;;5001876;28;20221;-73
2022/06/07 03:32:12;;;;;;;33.53;30.15;;;20.60;99.90;;;;;;4998067;28;20234;-72
2022/06/07 03:35:01;;;;;;;35.05;31.60;;;20.60;99.90;;;;;;5000111;28;20236;-73
2022/06/07 03:37:50;;;;;;;35.10;31.50;;;20.70;99.90;;;;;;5004855;28;20367;-73
2022/06/07 03:40:44;;;;;;;34.90;31.17;;;20.70;99.90;;;;;;5021273;28;20352;-73
2022/06/07 03:43:44;;;;;;;34.88;31.27;;;20.80;99.90;;;;;;5008114;28;20927;-72
2022/06/07 03:46:35;;;;;;;39.65;31.80;;;20.90;99.90;;;;;;5005247;28;20232;-72
2022/06/07 03:49:24;;;;;;;34.03;30.48;;;20.90;99.90;;;;;;5005687;28;20863;-73
2022/06/07 03:52:19;;;;;;;35.28;31.02;;;20.90;99.90;;;;;;5003269;28;20872;-72
2022/06/07 03:55:08;;;;;;;33.30;29.95;;;20.90;99.90;;;;;;5021852;28;20307;-72
2022/06/07 03:58:18;;;;;;;35.40;31.80;;;20.80;99.90;;;;;;5019553;28;20316;-72
2022/06/07 04:01:09;;;;;;;32.38;28.88;;;20.90;99.90;;;;;;5014492;28;20336;-72
2022/06/07 04:04:03;;;;;;;31.67;28.27;;;20.90;99.90;;;;;;5008168;28;20236;-73
2022/06/07 04:10:06;;;;;;;36.90;33.33;;;20.90;99.90;;;;;;5021119;28;20225;-72
2022/06/07 04:13:04;;;;;;;38.60;33.38;;;20.90;99.90;;;;;;5009773;28;20228;-72
2022/06/07 04:15:56;;;;;;;37.63;33.72;;;20.90;99.90;;;;;;5006483;28;20241;-71
2022/06/07 04:18:46;;;;;;;39.35;34.92;;;20.90;99.90;;;;;;5008874;28;20485;-73
2022/06/07 04:21:37;;;;;;;38.72;34.72;;;20.90;99.90;;;;;;5004212;28;20245;-73
2022/06/07 04:24:46;;;;;;;36.60;32.80;;;20.80;99.90;;;;;;5017287;28;20229;-72
2022/06/07 04:27:38;;;;;;;39.05;34.92;;;20.80;99.90;;;;;;4989591;28;20230;-72
2022/06/07 04:30:30;;;;;;;39.63;34.90;;;21.00;99.90;;;;;;4988430;28;20696;-72
2022/06/07 04:33:23;;;;;;;38.70;34.90;;;21.10;99.90;;;;;;4992974;28;20700;-73
2022/06/07 04:36:18;;;;;;;38.40;34.50;;;21.20;99.90;;;;;;4986092;28;20275;-74
2022/06/07 04:39:08;;;;;;;37.85;33.95;;;21.20;99.90;;;;;;4984485;28;20224;-74
2022/06/07 04:42:06;;;;;;;38.25;34.15;;;21.20;99.90;;;;;;4988442;28;20737;-72
2022/06/07 04:45:13;;;;;;;38.33;34.42;;;21.10;99.90;;;;;;4987136;28;20643;-74
2022/06/07 04:48:30;;;;;;;36.67;32.88;;;21.00;99.90;;;;;;5003524;28;20305;-74
2022/06/07 04:51:32;;;;;;;38.30;34.50;;;21.00;99.90;;;;;;4997805;28;20880;-72
2022/06/07 04:54:28;;;;;;;37.35;33.60;;;21.00;99.90;;;;;;4987587;28;20357;-73
2022/06/07 04:57:19;;;;;;;37.92;34.13;;;21.10;99.90;;;;;;4985550;28;20238;-74
2022/06/07 05:00:13;;;;;;;37.72;34.00;;;21.30;99.90;;;;;;4999963;28;20323;-71
2022/06/07 05:03:04;;;;;;;30.52;26.45;;;21.40;99.90;;;;;;4995551;28;20218;-70
2022/06/07 05:06:01;;;;;;;28.05;25.10;;;21.40;99.90;;;;;;4998083;28;20321;-70
2022/06/07 05:08:51;;;;;;;31.15;26.75;;;21.40;99.90;;;;;;4989056;28;20225;-70
2022/06/07 05:11:42;;;;;;;29.02;26.13;;;21.50;99.90;;;;;;5005242;28;20752;-72
2022/06/07 05:14:31;;;;;;;29.00;26.10;;;21.70;99.90;;;;;;4998123;28;20226;-71
2022/06/07 05:17:20;;;;;;;32.40;28.85;;;21.60;99.90;;;;;;4999921;28;20249;-73
2022/06/07 05:20:13;;;;;;;33.28;30.02;;;21.40;99.90;;;;;;5000938;28;20221;-73
2022/06/07 05:23:06;;;;;;;32.28;29.00;;;21.40;99.90;;;;;;5002751;28;20697;-75
2022/06/07 05:26:05;;;;;;;30.60;27.02;;;21.70;99.90;;;;;;4996948;28;20325;-72
2022/06/07 05:28:59;;;;;;;31.65;26.40;;;21.80;99.90;;;;;;5015791;28;20240;-73
2022/06/07 05:31:47;;;;;;;30.65;25.08;;;22.00;99.90;;;;;;5017069;28;20260;-72
2022/06/07 05:34:36;;;;;;;32.30;24.02;;;22.00;99.90;;;;;;5018017;28;20355;-73
2022/06/07 05:37:28;;;;;;;27.92;24.90;;;22.20;99.90;;;;;;5003326;28;20225;-74
2022/06/07 05:40:33;;;;;;;28.90;24.63;;;22.20;99.90;;;;;;5008042;28;20220;-74
2022/06/07 05:43:23;;;;;;;29.77;26.02;;;22.20;99.90;;;;;;5017946;28;20243;-74
2022/06/07 05:46:15;;;;;;;28.60;25.40;;;22.10;99.90;;;;;;4999848;28;20789;-75
2022/06/07 08:18:33;;;;;;;14.73;12.95;;;33.60;75.50;;;;;;5036710;27;20609;-73
2022/06/07 08:21:26;;;;;;;13.25;11.95;;;33.80;75.60;;;;;;5036630;28;20227;-73
2022/06/07 08:24:16;;;;;;;13.00;11.50;;;34.90;70.40;;;;;;5055709;28;20371;-75
2022/06/07 08:27:05;;;;;;;11.65;10.55;;;34.70;69.20;;;;;;5056881;28;20224;-75
2022/06/07 08:29:54;;;;;;;11.15;10.10;;;34.80;69.50;;;;;;5053426;28;20229;-74
2022/06/07 08:32:42;;;;;;;11.93;10.43;;;35.50;67.80;;;;;;5056483;28;20594;-75
2022/06/07 08:38:38;;;;;;;11.90;10.80;;;35.90;64.50;;;;;;5050812;28;20231;-74
2022/06/07 08:41:31;;;;;;;13.98;12.60;;;37.00;62.90;;;;;;5042660;28;20219;-74
2022/06/07 08:44:24;;;;;;;11.32;10.18;;;36.50;63.00;;;;;;5043225;28;20227;-75
2022/06/07 08:47:18;;;;;;;11.15;10.15;;;37.40;60.80;;;;;;5052011;28;20215;-75
2022/06/07 08:50:16;;;;;;;10.15;9.25;;;37.30;60.10;;;;;;5043976;28;20362;-75
2022/06/07 08:53:14;;;;;;;10.60;9.60;;;38.40;58.60;;;;;;5053351;28;20219;-76
2022/06/07 08:56:05;;;;;;;11.40;9.77;;;39.30;58.00;;;;;;5056972;28;20539;-73
2022/06/07 08:58:55;;;;;;;10.90;9.68;;;39.40;56.90;;;;;;5058558;28;20266;-74
2022/06/07 09:01:51;;;;;;;11.23;9.93;;;39.20;55.80;;;;;;5054491;28;20609;-73
2022/06/07 09:04:40;;;;;;;12.95;10.85;;;38.60;56.10;;;;;;5054476;28;21128;-74
2022/06/07 09:07:29;;;;;;;13.23;11.85;;;38.40;56.90;;;;;;5047131;28;20220;-75
2022/06/07 09:13:29;;;;;;;9.13;8.20;;;38.70;57.00;;;;;;5054435;28;20219;-74
2022/06/07 09:16:21;;;;;;;8.13;7.47;;;39.30;55.20;;;;;;5051405;28;20703;-76
2022/06/07 09:19:12;;;;;;;8.55;7.75;;;39.80;53.40;;;;;;5056085;28;20732;-75
2022/06/07 09:22:08;;;;;;;9.48;8.10;;;39.60;52.70;;;;;;5052884;28;20226;-73
2022/06/07 09:25:01;;;;;;;9.00;8.07;;;40.80;51.40;;;;;;5050813;28;20284;-73
2022/06/07 09:27:51;;;;;;;8.52;7.82;;;39.20;52.70;;;;;;5049238;28;20258;-74
2022/06/07 09:30:43;;;;;;;8.77;7.85;;;40.00;52.20;;;;;;5039029;28;20242;-72
2022/06/07 09:33:34;;;;;;;8.80;7.95;;;40.80;51.50;;;;;;5046327;28;20307;-72
2022/06/07 09:36:30;;;;;;;9.05;8.35;;;40.30;50.50;;;;;;5043178;28;20273;-73
2022/06/07 09:39:20;;;;;;;9.10;8.27;;;39.60;52.00;;;;;;5034973;28;20212;-73
2022/06/07 09:42:17;;;;;;;9.23;8.23;;;40.00;51.30;;;;;;5045702;28;20706;-71
2022/06/07 09:45:23;;;;;;;10.25;7.90;;;38.70;50.90;;;;;;5031474;28;20215;-70
2022/06/07 09:48:26;;;;;;;9.20;8.48;;;35.50;54.50;;;;;;5039127;28;20320;-73
2022/06/07 09:51:18;;;;;;;16.35;14.45;;;32.80;59.10;;;;;;5028281;28;20228;-74
2022/06/07 09:54:17;;;;;;;13.23;12.02;;;31.70;62.90;;;;;;5041365;28;20224;-71
2022/06/07 09:57:16;;;;;;;10.27;9.27;;;31.00;64.70;;;;;;5037042;28;20540;-72
2022/06/07 10:00:22;;;;;;;9.70;8.68;;;30.60;66.60;;;;;;5041439;28;20236;-72
2022/06/07 10:03:29;;;;;;;9.43;8.55;;;30.50;65.90;;;;;;5035168;28;20717;-73
2022/06/07 10:06:27;;;;;;;9.73;8.93;;;29.70;68.00;;;;;;5037906;28;20216;-74
2022/06/07 10:09:25;;;;;;;10.55;9.38;;;29.40;68.60;;;;;;5039737;28;20581;-73
2022/06/07 10:12:21;;;;;;;9.80;8.80;;;29.00;69.60;;;;;;5044565;28;20402;-73
2022/06/07 10:15:25;;;;;;;12.23;9.20;;;28.80;70.60;;;;;;5035159;28;20605;-73
2022/06/07 10:18:23;;;;;;;11.73;9.68;;;28.90;70.70;;;;;;5044992;28;20254;-73
2022/06/07 10:21:25;;;;;;;9.65;8.77;;;28.70;72.10;;;;;;5038791;28;20239;-72
2022/06/07 10:24:27;;;;;;;11.68;10.15;;;28.60;72.60;;;;;;5021455;28;20233;-72
2022/06/07 10:27:20;;;;;;;9.52;8.73;;;28.70;73.20;;;;;;5043154;28;20239;-74
2022/06/07 10:30:19;;;;;;;12.55;9.13;;;28.50;74.10;;;;;;5019391;28;20643;-72
2022/06/07 10:33:34;;;;;;;11.32;10.23;;;28.50;75.60;;;;;;5037981;28;20213;-73
2022/06/07 10:36:34;;;;;;;12.35;10.90;;;28.90;74.40;;;;;;5034435;28;20311;-73
2022/06/07 10:39:38;;;;;;;14.13;11.65;;;29.00;75.20;;;;;;5041243;28;20406;-72
2022/06/07 10:42:35;;;;;;;13.30;11.52;;;29.10;75.90;;;;;;5039257;28;20235;-72
2022/06/07 10:45:29;;;;;;;13.60;11.82;;;29.00;76.00;;;;;;5042693;28;20224;-73
2022/06/07 12:33:59;;;;;;;9.45;8.45;;;30.90;64.30;;;;;;5028984;27;1271515;-72
2022/06/07 12:36:57;;;;;;;8.73;7.82;;;30.60;66.40;;;;;;5084378;28;20662;-68
2022/06/07 12:39:51;;;;;;;9.05;8.18;;;30.50;67.10;;;;;;5078045;28;20322;-75
2022/06/07 12:42:48;;;;;;;11.88;10.60;;;30.40;66.20;;;;;;5091438;28;20222;-75
2022/06/07 12:45:39;;;;;;;11.18;9.90;;;30.40;67.30;;;;;;5085319;28;20214;-75
2022/06/07 12:48:35;;;;;;;10.23;8.70;;;29.90;67.90;;;;;;5089568;28;20222;-75
2022/06/07 12:51:35;;;;;;;9.60;8.68;;;29.80;68.40;;;;;;5094031;28;20232;-76
2022/06/07 12:54:24;;;;;;;15.75;10.93;;;29.00;68.90;;;;;;5085101;28;20214;-75
2022/06/07 12:57:16;;;;;;;8.93;8.23;;;28.30;73.50;;;;;;5077059;28;20246;-75
2022/06/07 13:00:13;;;;;;;9.88;8.88;;;28.70;70.50;;;;;;5085785;28;20219;-75
2022/06/07 13:03:07;;;;;;;9.60;8.70;;;28.40;71.20;;;;;;5084978;28;20217;-74
2022/06/07 13:06:01;;;;;;;8.88;7.90;;;27.80;72.90;;;;;;5088418;28;20305;-80
2022/06/07 13:09:00;;;;;;;9.32;7.63;;;27.80;72.20;;;;;;5090544;28;20605;-79
2022/06/07 13:11:49;;;;;;;10.55;9.23;;;27.90;72.20;;;;;;5081303;28;20227;-81
2022/06/07 13:14:42;;;;;;;9.10;8.13;;;26.80;76.00;;;;;;5092414;28;20287;-80
2022/06/07 13:17:33;;;;;;;9.30;8.40;;;27.30;74.90;;;;;;5093280;28;20219;-72
2022/06/07 13:20:29;;;;;;;9.23;8.38;;;27.60;73.80;;;;;;5085253;28;20241;-72
2022/06/07 13:23:26;;;;;;;8.73;7.85;;;28.10;73.60;;;;;;5084436;28;20303;-72
2022/06/07 13:26:22;;;;;;;9.05;8.18;;;28.30;73.70;;;;;;5066093;28;20293;-73
2022/06/07 13:29:19;;;;;;;11.40;8.27;;;28.60;72.00;;;;;;5084720;28;20721;-72
2022/06/07 13:32:22;;;;;;;19.48;8.73;;;28.80;71.90;;;;;;5093030;28;20224;-74
2022/06/07 13:35:25;;;;;;;10.20;8.50;;;29.10;71.50;;;;;;5071639;28;20227;-73
2022/06/07 13:38:25;;;;;;;9.15;7.60;;;29.10;72.00;;;;;;5069163;28;20314;-71
2022/06/07 13:41:21;;;;;;;8.65;7.78;;;28.90;70.30;;;;;;5066744;28;20230;-73
2022/06/07 13:44:30;;;;;;;9.48;8.02;;;28.70;70.60;;;;;;5062596;28;20230;-73
2022/06/07 13:47:26;;;;;;;11.27;8.18;;;28.80;70.60;;;;;;5054764;28;20220;-73
2022/06/07 13:53:43;;;;;;;10.32;6.90;;;28.60;68.70;;;;;;5052363;28;20785;-75
2022/06/07 13:56:33;;;;;;;8.68;7.90;;;28.50;70.00;;;;;;5075497;28;20230;-72
2022/06/07 13:59:22;;;;;;;9.00;8.20;;;28.80;70.10;;;;;;5073346;28;20223;-74
2022/06/07 14:02:12;;;;;;;11.02;9.48;;;29.00;69.80;;;;;;5054996;28;20208;-73
2022/06/07 14:05:01;;;;;;;8.65;7.35;;;29.00;69.40;;;;;;5058880;28;20220;-74
2022/06/07 14:07:50;;;;;;;8.80;7.70;;;28.70;69.70;;;;;;5070964;28;20216;-73
2022/06/07 14:10:38;;;;;;;11.25;10.35;;;28.70;69.50;;;;;;5080795;28;20223;-74
2022/06/07 14:13:28;;;;;;;9.35;8.23;;;28.50;70.90;;;;;;5056543;28;20713;-73
2022/06/07 14:16:31;;;;;;;9.75;8.82;;;28.20;71.50;;;;;;5063872;28;20224;-75
2022/06/07 14:19:24;;;;;;;10.30;9.30;;;27.80;73.00;;;;;;5078862;28;20223;-75
2022/06/07 14:22:17;;;;;;;11.23;8.57;;;27.80;73.20;;;;;;5047636;28;20697;-74
2022/06/07 14:25:10;;;;;;;8.85;7.95;;;27.80;73.50;;;;;;5052933;28;20216;-72
2022/06/07 14:28:00;;;;;;;8.65;7.95;;;28.00;73.60;;;;;;5061025;28;20232;-75
2022/06/07 14:30:54;;;;;;;8.23;7.53;;;27.90;71.80;;;;;;5059596;28;20228;-75
2022/06/07 14:33:44;;;;;;;8.32;7.53;;;27.90;71.00;;;;;;5073454;28;20303;-75
2022/06/07 14:36:36;;;;;;;9.02;8.13;;;28.00;70.80;;;;;;5050852;28;20219;-73
2022/06/07 14:39:25;;;;;;;10.35;7.43;;;28.00;71.00;;;;;;5042330;28;20299;-72
2022/06/07 14:42:15;;;;;;;8.55;7.75;;;27.90;71.30;;;;;;5052071;28;20276;-73
2022/06/07 14:45:05;;;;;;;9.70;8.07;;;27.90;72.00;;;;;;5064225;28;20550;-73
2022/06/07 14:47:59;;;;;;;13.10;11.73;;;27.90;72.10;;;;;;5055016;28;20277;-74
2022/06/07 14:50:48;;;;;;;8.15;7.45;;;28.00;71.80;;;;;;5054047;28;20213;-73
2022/06/07 14:53:36;;;;;;;8.30;7.50;;;27.90;71.00;;;;;;5064185;28;20222;-73
2022/06/07 14:56:28;;;;;;;8.48;7.68;;;28.10;70.60;;;;;;5055576;28;20224;-74
2022/06/07 14:59:17;;;;;;;8.43;7.72;;;28.20;70.60;;;;;;5044497;28;20231;-76
2022/06/07 15:02:13;;;;;;;8.85;8.05;;;28.00;70.90;;;;;;5039894;28;20224;-74
2022/06/07 15:05:07;;;;;;;8.30;7.50;;;27.80;71.70;;;;;;5051409;28;20285;-73
2022/06/07 15:07:59;;;;;;;10.27;8.02;;;27.80;71.40;;;;;;5040830;28;20219;-77
2022/06/07 15:10:49;;;;;;;8.45;7.55;;;27.80;71.40;;;;;;5067315;28;20250;-76
2022/06/07 15:13:38;;;;;;;7.65;6.95;;;27.90;71.80;;;;;;5072682;28;20224;-75
2022/06/07 15:16:29;;;;;;;8.20;7.40;;;27.90;70.00;;;;;;5056094;28;20314;-76
2022/06/07 15:19:24;;;;;;;8.18;7.38;;;27.80;70.60;;;;;;5062856;28;20680;-76
2022/06/07 15:22:17;;;;;;;9.55;7.00;;;27.80;70.30;;;;;;5053763;28;20216;-75
2022/06/07 15:25:10;;;;;;;9.18;8.27;;;27.80;70.30;;;;;;5053560;28;20234;-74
2022/06/07 15:27:59;;;;;;;7.75;6.93;;;27.80;70.60;;;;;;5048913;28;20235;-73
2022/06/07 15:30:48;;;;;;;7.72;6.85;;;27.80;69.40;;;;;;5042925;28;20225;-75
2022/06/07 15:33:37;;;;;;;8.00;7.20;;;27.60;69.40;;;;;;5052831;28;20270;-74
2022/06/07 15:36:26;;;;;;;9.52;6.85;;;27.40;70.30;;;;;;5050450;28;20232;-75
2022/06/07 15:39:16;;;;;;;7.85;6.85;;;27.50;70.40;;;;;;5054233;28;20306;-75
2022/06/07 15:45:38;;;;;;;11.32;10.13;;;27.30;70.10;;;;;;5050226;28;20230;-76
2022/06/07 15:48:28;;;;;;;8.50;6.97;;;27.20;71.10;;;;;;5047914;28;20238;-84
2022/06/07 15:51:17;;;;;;;9.27;7.88;;;27.30;70.70;;;;;;5057035;28;20326;-85
2022/06/07 15:54:06;;;;;;;9.18;6.70;;;27.20;70.50;;;;;;5074367;28;20262;-81
2022/06/07 15:56:56;;;;;;;7.85;7.03;;;27.10;70.00;;;;;;5066046;28;20611;-81
2022/06/07 15:59:44;;;;;;;8.52;6.97;;;27.10;70.30;;;;;;5063774;28;20253;-80
2022/06/07 16:02:32;;;;;;;9.27;6.90;;;27.10;71.00;;;;;;5063140;28;20224;-82
2022/06/07 16:05:22;;;;;;;16.67;7.15;;;27.20;71.60;;;;;;5076065;28;20224;-81
2022/06/07 16:08:12;;;;;;;8.40;6.93;;;27.00;71.40;;;;;;5079047;28;20220;-82
2022/06/07 16:11:01;;;;;;;8.07;7.22;;;27.00;71.90;;;;;;5081215;28;20227;-78
2022/06/07 16:13:51;;;;;;;7.47;6.78;;;26.90;71.50;;;;;;5058527;28;20218;-80
2022/06/07 16:16:43;;;;;;;13.20;6.53;;;26.90;71.70;;;;;;5064738;28;20247;-83
2022/06/07 16:19:34;;;;;;;7.53;6.60;;;27.00;71.10;;;;;;5045070;28;20595;-82
2022/06/07 16:22:23;;;;;;;10.70;7.05;;;26.90;71.20;;;;;;5049160;28;20287;-80
2022/06/07 16:25:12;;;;;;;8.55;6.80;;;26.90;72.00;;;;;;5060313;28;20297;-82
2022/06/07 16:34:21;;;;;;;9.15;7.68;;;26.90;73.70;;;;;;5076847;28;20307;-85
2022/06/07 16:37:10;;;;;;;12.02;7.72;;;26.90;73.50;;;;;;5080527;28;20220;-81
2022/06/07 16:39:59;;;;;;;16.08;12.45;;;26.90;74.80;;;;;;5078658;28;20326;-83
2022/06/07 16:42:48;;;;;;;11.80;7.57;;;26.70;75.60;;;;;;5084435;28;20227;-87
2022/06/07 16:45:36;;;;;;;10.77;8.32;;;26.70;76.40;;;;;;5094781;28;20235;-86
2022/06/07 16:48:27;;;;;;;12.73;10.13;;;26.70;76.60;;;;;;5067559;28;20315;-84
2022/06/07 16:51:16;;;;;;;21.02;8.90;;;26.70;77.10;;;;;;5074933;28;20445;-86
2022/06/07 16:54:06;;;;;;;15.40;8.35;;;26.70;77.60;;;;;;5067607;28;20756;-88
2022/06/07 16:56:56;;;;;;;14.40;8.60;;;26.70;79.90;;;;;;5067773;28;20224;-88
2022/06/07 16:59:45;;;;;;;14.30;8.50;;;26.60;79.70;;;;;;5065424;28;20220;-89
2022/06/07 17:02:38;;;;;;;11.05;8.38;;;26.60;79.00;;;;;;5078818;28;20753;-93
2022/06/07 17:05:28;;;;;;;10.63;9.52;;;26.60;78.80;;;;;;5071241;28;20594;-89
2022/06/07 17:08:29;;;;;;;15.10;12.05;;;26.60;80.60;;;;;;5063415;28;20212;-90
2022/06/07 17:11:19;;;;;;;18.50;14.20;;;26.60;81.40;;;;;;5068575;28;20219;-90
2022/06/07 17:14:09;;;;;;;13.80;12.45;;;26.50;83.50;;;;;;5057146;28;20227;-87
2022/06/07 17:16:58;;;;;;;18.30;13.02;;;26.40;86.80;;;;;;5059101;28;20231;-83
2022/06/07 17:19:47;;;;;;;17.00;13.20;;;26.40;89.80;;;;;;5062809;28;20228;-79
2022/06/07 17:22:37;;;;;;;17.77;13.73;;;26.40;91.10;;;;;;5061075;28;20219;-81
2022/06/07 17:25:28;;;;;;;16.65;13.13;;;26.40;92.40;;;;;;5066569;28;20231;-80
2022/06/07 17:28:20;;;;;;;17.42;13.00;;;26.30;94.50;;;;;;5068153;28;20228;-81
2022/06/07 17:31:15;;;;;;;14.38;12.93;;;26.20;96.10;;;;;;5064661;28;20356;-80
2022/06/07 17:34:06;;;;;;;12.60;11.38;;;26.10;99.50;;;;;;5060804;28;20247;-80
2022/06/07 17:36:55;;;;;;;12.55;11.02;;;26.00;99.30;;;;;;5080993;28;20262;-81
2022/06/07 17:39:48;;;;;;;12.30;11.05;;;26.00;99.00;;;;;;5060677;28;20216;-80
2022/06/07 17:42:39;;;;;;;11.63;10.50;;;26.00;99.60;;;;;;5063176;28;20216;-79
2022/06/07 17:45:28;;;;;;;13.07;10.52;;;25.80;99.90;;;;;;5073983;28;20223;-76
2022/06/07 17:48:17;;;;;;;11.13;10.02;;;25.60;99.90;;;;;;5074877;28;20216;-76
2022/06/07 17:51:05;;;;;;;10.60;9.70;;;25.60;99.90;;;;;;5079012;28;20216;-75
2022/06/07 17:53:54;;;;;;;11.48;10.38;;;25.50;99.90;;;;;;5079940;28;20223;-74
2022/06/07 17:56:44;;;;;;;10.60;9.68;;;25.50;99.90;;;;;;5081465;28;20224;-74
2022/06/07 17:59:33;;;;;;;11.65;10.27;;;25.30;99.90;;;;;;5052171;28;20217;-74
2022/06/07 18:02:22;;;;;;;11.68;10.43;;;25.30;99.90;;;;;;5058782;28;20228;-73
2022/06/07 18:05:12;;;;;;;11.52;10.43;;;25.20;99.90;;;;;;5060812;28;20220;-75
2022/06/07 18:08:01;;;;;;;11.18;10.00;;;25.10;99.90;;;;;;5058833;28;20891;-73
2022/06/07 18:10:51;;;;;;;11.90;10.70;;;24.90;99.90;;;;;;5061324;28;20311;-74
2022/06/07 18:13:42;;;;;;;12.18;9.90;;;24.90;99.90;;;;;;5076382;28;20231;-74
2022/06/07 18:16:33;;;;;;;10.88;9.90;;;25.00;99.90;;;;;;5073931;28;20259;-73
2022/06/07 18:19:22;;;;;;;12.43;10.35;;;24.90;99.90;;;;;;5075096;28;20231;-74
2022/06/07 18:22:11;;;;;;;12.55;10.10;;;24.90;99.90;;;;;;5075514;28;20216;-74
2022/06/07 18:25:01;;;;;;;11.88;10.43;;;24.80;99.90;;;;;;5079604;28;20216;-73
2022/06/07 18:27:49;;;;;;;12.98;10.10;;;24.60;99.90;;;;;;5075055;28;20220;-74
2022/06/07 18:30:39;;;;;;;11.57;10.48;;;24.70;99.90;;;;;;5084610;28;20295;-73
2022/06/07 18:33:28;;;;;;;11.30;10.18;;;24.60;99.90;;;;;;5075169;28;20220;-73
2022/06/07 18:36:17;;;;;;;10.57;9.43;;;24.50;99.90;;;;;;5090014;28;20223;-74
2022/06/07 18:39:06;;;;;;;10.05;9.05;;;24.40;99.90;;;;;;5079712;28;20212;-74
2022/06/07 18:41:55;;;;;;;12.00;9.00;;;24.40;99.90;;;;;;5075848;28;20230;-72
2022/06/07 18:44:44;;;;;;;9.13;8.23;;;24.40;99.90;;;;;;5073909;28;20230;-73
2022/06/07 18:47:35;;;;;;;9.30;8.40;;;24.30;99.90;;;;;;5070945;28;20703;-74
2022/06/07 18:50:27;;;;;;;12.10;8.48;;;24.40;99.90;;;;;;5067903;28;20228;-73
2022/06/07 18:53:25;;;;;;;10.00;8.82;;;24.40;99.90;;;;;;5072855;28;20870;-74
2022/06/07 18:56:17;;;;;;;8.63;7.82;;;24.30;99.90;;;;;;5066544;28;20239;-74
2022/06/07 18:59:05;;;;;;;11.45;8.55;;;24.10;99.90;;;;;;5055837;28;20243;-72
2022/06/07 19:01:54;;;;;;;11.00;8.40;;;24.00;99.90;;;;;;5052976;28;20311;-73
2022/06/07 19:04:44;;;;;;;12.85;8.13;;;24.00;99.90;;;;;;5050888;28;20232;-72
2022/06/07 19:07:33;;;;;;;10.18;8.00;;;24.00;99.90;;;;;;5074411;28;20228;-74
2022/06/07 19:10:22;;;;;;;8.70;7.90;;;23.90;99.90;;;;;;5059672;28;20228;-73
2022/06/07 19:13:11;;;;;;;9.25;7.57;;;23.90;99.90;;;;;;5058815;28;20701;-74
2022/06/07 19:15:59;;;;;;;8.55;7.75;;;23.90;99.90;;;;;;5069560;28;20231;-73
2022/06/07 19:18:53;;;;;;;11.65;9.20;;;23.70;99.90;;;;;;5061385;28;20253;-74
2022/06/07 19:21:44;;;;;;;7.68;6.97;;;23.80;99.90;;;;;;5060608;28;20219;-73
2022/06/07 19:24:33;;;;;;;10.50;7.50;;;23.40;99.90;;;;;;5071459;28;20235;-73